ENBREKVG

Guest
Details From ENBR - Bergen Lufthavn Flesland
To EKVG - Vagar
Flight Number -
Tags decoded
Created
Modified
Stats Distance 395 nm / 732 km
Max Altitude 0 ft / 0 m
Waypoints 6
Social Downloads 2
Likes 0
Share VATSIM

Download

Looking for another format? Having issues loading an existing format? Contact us
Advertisement - Login to hide

Notes

Requested: ENBR FLS N623 VALDI G3 MY EKVG Unmatched points: N623

Route

ENBR FLS VALDI G3 MY EKVG

ID Type Via Altitude Latitude Longitude Leg Dist Tot Dist Heading (true) Name
O ENBR APT - 0 ft / 0 m 60.29339˚ 5.21814˚ - 0 nm - Bergen Lufthavn Flesland
FLS VOR - 0 ft / 0 m 60.31126˚ 5.21219˚ 1 nm 1 nm 351° / 351° FLESLAND VOR-DME
VALDI FIX - 0 ft / 0 m 61.21417˚ 0.00000˚ 162 nm 163 nm 292° / 287° -
CONNY FIX G3 (AWY-LO) 0 ft / 0 m 61.90000˚ -5.58333˚ 164 nm 328 nm 287° / 282° -
MY NDB G3 (AWY-LO) 0 ft / 0 m 62.10694˚ -7.58778˚ 57 nm 385 nm 283° / 282° MYGGENES NDB
O EKVG APT - 0 ft / 0 m 62.06358˚ -7.27704˚ 9 nm 395 nm 106° / 107° Vagar

Altitude Profile

Advertisement - Login to hide

Weather


0- 5 10 15 20 25 30 35+ Temperature / ° C

Clouds and Precipitation
Forecast for 2018-05-28 00:00 UTC. Updated 23 minutes ago

Ground ~20,000 ft ~40,000 ft Winds

ENBR

Details ICAO ENBR (BGO)
Name Bergen Lufthavn Flesland
Region Norway
Timezone Europe/Oslo (UTC+2.0)
Stats Elevation 165 ft / 50 m (AMSL)
Location 60.293388° 5.218140°
Runways 1
Magnetic Variation 0.921° E

METAR

ENBR 272250Z 13003KT CAVOK 17/10 Q1027 RMK WIND 1200FT 25004KT

Decode

TAF

TAF ENBR 271700Z 2718/2818 VRB07KT CAVOK BECMG 2812/2815 33012KT

Decode

Departure Runways

ID Width Length Bearing (true) Bearing (mag) Surface Threshold Offset Overrun Length
17 148 ft / 45 m 9,793 ft / 2,985 m 170.56° 169.64° Asphalt 886 ft / 270 m 0 ft / 0 m
35 148 ft / 45 m 9,793 ft / 2,985 m 350.57° 349.65° Asphalt 886 ft / 270 m 0 ft / 0 m

EKVG

Details ICAO EKVG (FAE)
Name Vagar
Region Denmark / Faroe Islands
Timezone Atlantic/Faroe (UTC+1.0)
Stats Elevation 280 ft / 85 m (AMSL)
Location 62.063584° -7.277044°
Runways 1
Magnetic Variation 5.288° W

METAR

EKVG 272320Z AUTO 14013KT 9999NDV FEW057/// 10/06 Q1019 RMK FEW057/// WIND 850FT 13019KT

Decode

TAF

Not found

Destination Runways

ID Width Length Bearing (true) Bearing (mag) Surface Threshold Offset Overrun Length
13 98 ft / 30 m 4,088 ft / 1,246 m 117.92° 123.21° Asphalt 0 ft / 0 m 197 ft / 60 m
31 98 ft / 30 m 4,088 ft / 1,246 m 297.94° 303.23° Asphalt 0 ft / 0 m 197 ft / 60 m

Approach Navaids

Runway Type Ident Frequency Range Bearing (true) Bearing (mag) Slope Elevation
13 Localiser SF 109.10 MHz 17 nm / 31 km 104.19° 109.47° - 268 ft / 82 m (AMSL)
13 DME SF 109.10 MHz 18 nm / 33 km - - - 268 ft / 82 m (AMSL)
31 Localiser MF 110.30 MHz 26 nm / 48 km 296.18° 301.47° - 276 ft / 84 m (AMSL)
31 DME MF 110.30 MHz 25 nm / 46 km - - - 275 ft / 84 m (AMSL)

Popular Alternatives